This is the latest recevied weather packets stored in our database for station/object N0SWP-3. If no packets are shown the sender has not sent any weather packets the latest 10 day(s).
| Time | Temp. | Humidity | Pressure | Rain* | Wind** | Luminosity | Snow |
|---|---|---|---|---|---|---|---|
| 1777704303 | 8.33° C | 64% | 1019.7 hPa | 0 mm | - | - | - |
| 1777703403 | 8.89° C | 63% | 1019.8 hPa | 0 mm | - | - | - |
| 1777703358 | 8.89° C | 63% | 1019.9 hPa | 0 mm | - | - | - |
| 1777700343 | 9.44° C | 65% | 1020 hPa | 0 mm | - | - | - |
| 1777700164 | 9.44° C | 65% | 1020 hPa | 0 mm | - | - | - |
| 1777699443 | 8.89° C | 68% | 1019.9 hPa | 0 mm | - | - | - |
| 1777699083 | 8.89° C | 71% | 1019.8 hPa | 0 mm | - | - | - |
| 1777698498 | 8.89° C | 71% | 1019.7 hPa | 0 mm | - | - | - |
| 1777697644 | 9.44° C | 72% | 1019.6 hPa | 0 mm | - | - | - |
| 1777697283 | 9.44° C | 71% | 1019.6 hPa | 0 mm | - | - | - |
| 1777696923 | 10° C | 71% | 1019.5 hPa | 0 mm | - | - | - |
| 1777693097 | 11.11° C | 69% | 1019.3 hPa | 0 mm | - | - | - |
| 1777692783 | 11.11° C | 70% | 1019.3 hPa | 0 mm | - | - | - |
| 1777692603 | 11.11° C | 69% | 1019.2 hPa | 0 mm | - | - | - |
| 1777692423 | 11.11° C | 69% | 1019.2 hPa | 0 mm | - | - | - |
| 1777691523 | 11.67° C | 66% | 1019.2 hPa | 0 mm | - | - | - |
| 1777690803 | 12.22° C | 64% | 1019 hPa | 0 mm | - | - | - |
| 1777690623 | 12.22° C | 64% | 1018.9 hPa | 0 mm | - | - | - |
| 1777689543 | 13.33° C | 60% | 1018.6 hPa | 0 mm | - | - | - |
| 1777688103 | 14.44° C | 55% | 1018.3 hPa | 0 mm | - | - | - |
| 1777686124 | 15° C | 51% | 1017.7 hPa | 0 mm | - | - | - |
| 1777685403 | 15° C | 49% | 1017.5 hPa | 0 mm | - | - | - |
| 1777684323 | 15.56° C | 46% | 1017.3 hPa | 0 mm | - | - | - |
| 1777683963 | 16.11° C | 44% | 1017.2 hPa | 0 mm | - | - | - |
| 1777683603 | 16.67° C | 43% | 1017.1 hPa | 0 mm | - | - | - |
* Rain latest hour (hover to see other rain measurements)
** Current wind speed in m/s (hover to see current wind gust speed)